createdAt,value
2023-05-21T00:01:25.986Z,13.20
2023-05-21T00:03:53.340Z,13.20
2023-05-21T00:06:21.162Z,13.20
2023-05-21T00:08:48.585Z,13.20
2023-05-21T00:11:15.308Z,13.10
2023-05-21T00:13:42.732Z,13.10
2023-05-21T00:16:11.402Z,13.00
2023-05-21T00:18:39.320Z,13.00
2023-05-21T00:21:06.636Z,13.00
2023-05-21T00:23:34.312Z,12.90
2023-05-21T00:26:01.168Z,12.90
2023-05-21T00:28:28.502Z,12.90
2023-05-21T00:30:55.431Z,12.90
2023-05-21T00:33:26.621Z,12.90
2023-05-21T00:35:53.531Z,12.80
2023-05-21T00:38:22.281Z,12.80
2023-05-21T00:40:49.356Z,12.70
2023-05-21T00:43:16.982Z,12.70
2023-05-21T00:45:47.373Z,12.60
2023-05-21T00:48:15.037Z,12.60
2023-05-21T00:50:42.400Z,12.60
2023-05-21T00:53:12.462Z,12.70
2023-05-21T00:55:39.903Z,12.60
2023-05-21T00:58:08.333Z,12.60
2023-05-21T01:00:36.253Z,12.60
2023-05-21T01:03:05.068Z,12.60
2023-05-21T01:05:32.390Z,12.60
2023-05-21T01:08:03.293Z,12.50
2023-05-21T01:10:30.739Z,12.50
2023-05-21T01:12:59.491Z,12.50
2023-05-21T01:15:27.292Z,12.50
2023-05-21T01:17:56.071Z,12.50
2023-05-21T01:20:24.258Z,12.50
2023-05-21T01:22:56.064Z,12.50
2023-05-21T01:25:24.787Z,12.50
2023-05-21T01:27:52.667Z,12.50
2023-05-21T01:30:22.084Z,12.50
2023-05-21T01:33:01.997Z,12.50
2023-05-21T01:35:50.351Z,12.40
2023-05-21T01:38:24.718Z,12.40
2023-05-21T01:40:58.567Z,12.50
2023-05-21T01:43:29.454Z,12.40
2023-05-21T01:45:57.264Z,12.50
2023-05-21T01:48:27.380Z,12.40
2023-05-21T01:50:57.576Z,12.40
2023-05-21T01:53:25.283Z,12.40
2023-05-21T01:55:52.201Z,12.40
2023-05-21T01:58:21.369Z,12.50
2023-05-21T02:00:50.867Z,12.50
2023-05-21T02:03:20.422Z,12.50
2023-05-21T02:05:47.371Z,12.50
2023-05-21T02:08:19.881Z,12.50
2023-05-21T02:10:46.559Z,12.50
2023-05-21T02:13:13.885Z,12.50
2023-05-21T02:15:40.586Z,12.50
2023-05-21T02:18:08.685Z,12.50
2023-05-21T02:20:36.519Z,12.50
2023-05-21T02:23:03.791Z,12.50
2023-05-21T02:25:30.554Z,12.50
2023-05-21T02:27:57.882Z,12.50
2023-05-21T02:30:24.578Z,12.50
2023-05-21T02:32:51.588Z,12.50
2023-05-21T02:35:18.281Z,12.50
2023-05-21T02:37:45.722Z,12.50
2023-05-21T02:40:13.006Z,12.50
2023-05-21T02:42:41.616Z,12.50
2023-05-21T02:45:12.695Z,12.50
2023-05-21T02:47:42.440Z,12.50
2023-05-21T02:50:09.605Z,12.50
2023-05-21T02:52:44.115Z,12.50
2023-05-21T02:55:10.970Z,12.50
2023-05-21T02:57:38.366Z,12.50
2023-05-21T03:00:06.071Z,12.40
2023-05-21T03:02:33.664Z,12.40
2023-05-21T03:05:00.709Z,12.40
2023-05-21T03:07:27.999Z,12.40
2023-05-21T03:09:54.882Z,12.40
2023-05-21T03:12:22.299Z,12.40
2023-05-21T03:14:51.256Z,12.30
2023-05-21T03:17:20.786Z,12.30
2023-05-21T03:19:48.976Z,12.30
2023-05-21T03:22:16.513Z,12.30
2023-05-21T03:24:45.064Z,12.30
2023-05-21T03:27:13.167Z,12.30
2023-05-21T03:29:39.953Z,12.30
2023-05-21T03:32:08.365Z,12.40
2023-05-21T03:34:35.550Z,12.40
2023-05-21T03:37:03.158Z,12.40
2023-05-21T03:39:31.055Z,12.40
2023-05-21T03:41:59.126Z,12.40
2023-05-21T03:44:35.508Z,12.40
2023-05-21T03:47:29.181Z,12.40
2023-05-21T03:49:57.123Z,12.40
2023-05-21T03:52:24.215Z,12.40
2023-05-21T03:54:50.938Z,12.40
2023-05-21T03:57:18.307Z,12.40
2023-05-21T03:59:46.422Z,12.40
2023-05-21T04:02:14.903Z,12.40
2023-05-21T04:04:43.251Z,12.40
2023-05-21T04:07:14.775Z,12.40
2023-05-21T04:09:42.001Z,12.40
2023-05-21T04:12:09.154Z,12.40
2023-05-21T04:14:40.363Z,12.40
2023-05-21T04:17:07.727Z,12.40
2023-05-21T04:19:34.954Z,12.50
2023-05-21T04:22:03.897Z,12.50
2023-05-21T04:24:31.145Z,12.40
2023-05-21T04:27:10.177Z,12.50
2023-05-21T04:29:37.645Z,12.50
2023-05-21T04:32:05.461Z,12.50
2023-05-21T04:34:34.680Z,12.50
2023-05-21T04:37:02.569Z,12.60
2023-05-21T04:39:31.415Z,12.60
2023-05-21T04:41:58.763Z,12.60
2023-05-21T04:44:26.158Z,12.60
2023-05-21T04:46:55.007Z,12.60
2023-05-21T04:49:21.871Z,12.70
2023-05-21T04:51:52.153Z,12.70
2023-05-21T04:54:19.107Z,12.70
2023-05-21T04:56:47.685Z,12.70
2023-05-21T04:59:16.661Z,12.80
2023-05-21T05:01:44.143Z,12.80
2023-05-21T05:04:10.935Z,12.80
2023-05-21T05:06:38.334Z,12.90
2023-05-21T05:09:05.571Z,12.90
2023-05-21T05:11:33.062Z,13.00
2023-05-21T05:13:59.799Z,13.00
2023-05-21T05:16:28.223Z,13.10
2023-05-21T05:18:56.933Z,13.10
2023-05-21T05:21:24.360Z,13.10
2023-05-21T05:23:51.255Z,13.20
2023-05-21T05:26:21.880Z,13.20
2023-05-21T05:28:49.231Z,13.30
2023-05-21T05:31:16.944Z,13.40
2023-05-21T05:33:44.063Z,13.50
2023-05-21T05:36:12.063Z,13.50
2023-05-21T05:38:38.860Z,13.60
2023-05-21T05:41:06.488Z,13.70
2023-05-21T05:43:33.254Z,13.70
2023-05-21T05:46:01.428Z,13.80
2023-05-21T05:48:28.581Z,13.80
2023-05-21T05:50:57.386Z,13.90
2023-05-21T05:53:25.814Z,14.00
2023-05-21T05:55:54.022Z,14.00
2023-05-21T05:58:20.783Z,14.10
2023-05-21T06:00:57.731Z,14.20
2023-05-21T06:03:25.284Z,14.30
2023-05-21T06:05:53.928Z,14.40
2023-05-21T06:08:20.738Z,14.40
2023-05-21T06:10:48.087Z,14.50
2023-05-21T06:13:15.093Z,14.60
2023-05-21T06:15:43.565Z,15.00
2023-05-21T06:18:11.328Z,15.70
2023-05-21T06:20:38.921Z,16.60
2023-05-21T06:23:07.192Z,17.10
2023-05-21T06:25:35.016Z,17.00
2023-05-21T06:28:02.108Z,16.80
2023-05-21T06:30:30.807Z,16.70
2023-05-21T06:32:57.614Z,16.60
2023-05-21T06:35:25.346Z,16.70
2023-05-21T06:37:52.122Z,16.80
2023-05-21T06:40:20.813Z,17.00
2023-05-21T06:42:48.274Z,17.20
2023-05-21T06:45:21.454Z,17.60
2023-05-21T06:47:51.782Z,17.60
2023-05-21T06:50:18.734Z,17.80
2023-05-21T06:52:46.226Z,17.90
2023-05-21T06:55:13.778Z,18.00
2023-05-21T06:58:02.376Z,18.40
2023-05-21T07:00:30.526Z,18.80
2023-05-21T07:02:58.401Z,19.10
2023-05-21T07:05:25.670Z,19.30
2023-05-21T07:07:54.904Z,19.40
2023-05-21T07:10:21.741Z,19.20
2023-05-21T07:12:49.012Z,19.30
2023-05-21T07:15:15.709Z,19.30
2023-05-21T07:17:43.612Z,19.20
2023-05-21T07:20:11.497Z,19.10
2023-05-21T07:22:43.325Z,19.00
2023-05-21T07:25:11.733Z,19.10
2023-05-21T07:27:39.034Z,19.10
2023-05-21T07:30:06.402Z,19.40
2023-05-21T07:32:33.826Z,19.40
2023-05-21T07:35:03.660Z,19.50
2023-05-21T07:37:31.919Z,19.50
2023-05-21T07:39:59.307Z,19.70
2023-05-21T07:42:26.683Z,19.60
2023-05-21T07:44:56.045Z,19.90
2023-05-21T07:47:24.538Z,20.00
2023-05-21T07:49:51.700Z,20.10
2023-05-21T07:52:19.173Z,19.90
2023-05-21T07:54:45.933Z,19.80
2023-05-21T07:57:13.104Z,19.90
2023-05-21T08:00:01.178Z,20.00
2023-05-21T08:02:30.693Z,20.00
2023-05-21T08:04:59.180Z,19.80
2023-05-21T08:07:26.508Z,19.30
2023-05-21T08:09:54.669Z,19.00
2023-05-21T08:12:21.448Z,18.80
2023-05-21T08:14:48.971Z,18.80
2023-05-21T08:17:16.810Z,18.80
2023-05-21T08:19:44.353Z,18.70
2023-05-21T08:22:11.075Z,18.50
2023-05-21T08:24:41.813Z,18.50
2023-05-21T08:27:08.504Z,18.60
2023-05-21T08:29:35.671Z,18.70
2023-05-21T08:32:03.451Z,18.50
2023-05-21T08:34:30.580Z,18.60
2023-05-21T08:37:10.536Z,18.70
2023-05-21T08:40:01.064Z,18.70
2023-05-21T08:42:41.022Z,18.70
2023-05-21T08:45:11.031Z,18.70
2023-05-21T08:47:38.780Z,18.70
2023-05-21T08:50:11.090Z,18.70
2023-05-21T08:52:38.441Z,18.70
2023-05-21T08:55:06.135Z,18.70
2023-05-21T08:57:34.843Z,18.70
2023-05-21T09:00:04.542Z,18.80
2023-05-21T09:02:35.612Z,18.90
2023-05-21T09:05:04.411Z,18.90
2023-05-21T09:07:34.657Z,18.80
2023-05-21T09:10:27.060Z,18.80
2023-05-21T09:12:54.576Z,18.70
2023-05-21T09:15:21.927Z,18.80
2023-05-21T09:17:49.244Z,18.70
2023-05-21T09:20:39.028Z,18.50
2023-05-21T09:23:12.497Z,18.60
2023-05-21T09:25:39.880Z,18.70
2023-05-21T09:28:13.491Z,19.00
2023-05-21T09:30:53.905Z,19.20
2023-05-21T09:33:31.774Z,19.40
2023-05-21T09:35:58.567Z,19.70
2023-05-21T09:38:27.471Z,20.00
2023-05-21T09:40:56.864Z,20.00
2023-05-21T09:43:25.602Z,20.10
2023-05-21T09:45:55.678Z,20.00
2023-05-21T09:48:44.824Z,20.00
2023-05-21T09:51:17.370Z,20.20
2023-05-21T09:53:47.465Z,20.20
2023-05-21T09:56:14.184Z,20.20
2023-05-21T09:58:41.288Z,20.00
2023-05-21T10:01:10.370Z,19.90
2023-05-21T10:03:41.039Z,19.80
2023-05-21T10:06:12.098Z,19.90
2023-05-21T10:08:44.794Z,20.10
2023-05-21T10:11:12.178Z,20.30
2023-05-21T10:13:45.412Z,20.30
2023-05-21T10:16:12.647Z,20.20
2023-05-21T10:18:41.478Z,20.20
2023-05-21T10:21:08.548Z,20.00
2023-05-21T10:23:38.005Z,20.00
2023-05-21T10:26:06.907Z,20.40
2023-05-21T10:28:35.102Z,20.80
2023-05-21T10:31:02.336Z,21.30
2023-05-21T10:33:29.932Z,21.80
2023-05-21T10:35:59.395Z,22.10
2023-05-21T10:38:27.970Z,22.40
2023-05-21T10:40:56.051Z,22.50
2023-05-21T10:43:44.881Z,22.50
2023-05-21T10:46:43.350Z,22.70
2023-05-21T10:49:45.058Z,22.70
2023-05-21T10:52:37.096Z,22.50
2023-05-21T10:55:17.018Z,22.50
2023-05-21T10:57:47.465Z,22.60
2023-05-21T11:00:18.405Z,22.90
2023-05-21T11:02:46.318Z,22.90
2023-05-21T11:05:13.480Z,22.90
2023-05-21T11:08:00.572Z,22.80
2023-05-21T11:10:36.601Z,22.60
2023-05-21T11:13:15.283Z,22.50
2023-05-21T11:15:57.590Z,22.50
2023-05-21T11:18:44.897Z,22.30
2023-05-21T11:21:14.113Z,22.30
2023-05-21T11:24:02.480Z,22.30
2023-05-21T11:26:49.942Z,22.40
2023-05-21T11:29:18.307Z,22.40
2023-05-21T11:32:12.904Z,22.50
2023-05-21T11:34:45.997Z,22.60
2023-05-21T11:37:27.126Z,22.60
2023-05-21T11:39:54.509Z,22.80
2023-05-21T11:42:38.941Z,22.80
2023-05-21T11:45:06.287Z,23.00
2023-05-21T11:47:33.636Z,23.30
2023-05-21T11:50:04.588Z,23.20
2023-05-21T11:52:33.337Z,23.00
2023-05-21T11:55:00.205Z,23.00
2023-05-21T11:57:31.369Z,22.90
2023-05-21T12:00:02.226Z,23.00
2023-05-21T12:02:44.481Z,23.00
2023-05-21T12:05:13.161Z,23.00
2023-05-21T12:07:40.670Z,22.80
2023-05-21T12:10:08.059Z,22.50
2023-05-21T12:12:46.068Z,22.40
2023-05-21T12:15:21.049Z,22.40
2023-05-21T12:17:51.324Z,22.40
2023-05-21T12:20:18.076Z,22.30
2023-05-21T12:22:45.298Z,22.40
2023-05-21T12:25:12.652Z,22.60
2023-05-21T12:27:39.869Z,22.50
2023-05-21T12:30:08.574Z,22.70
2023-05-21T12:32:35.466Z,23.00
2023-05-21T12:35:03.000Z,23.00
2023-05-21T12:37:35.414Z,23.00
2023-05-21T12:40:08.194Z,23.20
2023-05-21T12:42:35.042Z,23.20
2023-05-21T12:45:07.583Z,23.30
2023-05-21T12:47:34.487Z,23.20
2023-05-21T12:50:03.565Z,23.20
2023-05-21T12:52:33.518Z,23.20
2023-05-21T12:55:01.198Z,23.20
2023-05-21T12:57:35.574Z,23.20
2023-05-21T13:00:09.282Z,23.30
2023-05-21T13:02:44.823Z,23.40
2023-05-21T13:05:20.469Z,23.40
2023-05-21T13:07:47.899Z,23.40
2023-05-21T13:10:17.057Z,23.30
2023-05-21T13:12:44.948Z,23.50
2023-05-21T13:15:12.964Z,23.80
2023-05-21T13:17:39.710Z,23.90
2023-05-21T13:20:12.443Z,24.10
2023-05-21T13:22:51.225Z,24.00
2023-05-21T13:25:29.660Z,23.90
2023-05-21T13:27:57.722Z,23.90
2023-05-21T13:30:24.376Z,24.00
2023-05-21T13:32:52.095Z,23.80
2023-05-21T13:35:19.257Z,23.90
2023-05-21T13:37:46.602Z,23.90
2023-05-21T13:40:15.664Z,24.00
2023-05-21T13:42:48.616Z,24.10
2023-05-21T13:45:17.903Z,24.00
2023-05-21T13:47:47.926Z,24.30
2023-05-21T13:50:15.436Z,24.50
2023-05-21T13:52:42.730Z,24.60
2023-05-21T13:55:10.565Z,24.60
2023-05-21T13:57:38.010Z,24.80
2023-05-21T14:00:06.270Z,24.60
2023-05-21T14:02:34.773Z,24.70
2023-05-21T14:05:01.644Z,24.60
2023-05-21T14:07:28.668Z,24.50
2023-05-21T14:09:56.274Z,24.60
2023-05-21T14:12:23.034Z,24.80
2023-05-21T14:14:51.965Z,24.70
2023-05-21T14:17:18.737Z,24.90
2023-05-21T14:19:45.683Z,24.80
2023-05-21T14:22:12.404Z,24.70
2023-05-21T14:24:39.766Z,24.70
2023-05-21T14:27:06.424Z,24.70
2023-05-21T14:29:33.820Z,24.70
2023-05-21T14:32:00.585Z,24.70
2023-05-21T14:34:28.009Z,24.70
2023-05-21T14:36:54.724Z,24.70
2023-05-21T14:39:22.007Z,24.90
2023-05-21T14:41:48.743Z,24.80
2023-05-21T14:44:16.401Z,24.70
2023-05-21T14:46:43.085Z,24.70
2023-05-21T14:49:12.082Z,24.60
2023-05-21T14:51:38.705Z,24.60
2023-05-21T14:54:06.091Z,24.50
2023-05-21T14:56:32.822Z,24.40
2023-05-21T14:59:00.157Z,24.40
2023-05-21T15:01:26.912Z,24.50
2023-05-21T15:03:56.291Z,24.60
2023-05-21T15:06:23.019Z,24.60
2023-05-21T15:08:50.469Z,24.60
2023-05-21T15:11:17.103Z,24.60
2023-05-21T15:13:44.348Z,24.60
2023-05-21T15:16:11.027Z,24.60
2023-05-21T15:18:39.460Z,24.60
2023-05-21T15:21:06.244Z,24.50
2023-05-21T15:23:33.518Z,24.50
2023-05-21T15:26:00.273Z,24.40
2023-05-21T15:28:27.589Z,24.50
2023-05-21T15:30:54.229Z,24.50
2023-05-21T15:33:21.523Z,24.30
2023-05-21T15:35:48.364Z,24.20
2023-05-21T15:38:15.838Z,24.00
2023-05-21T15:40:42.664Z,23.80
2023-05-21T15:43:10.075Z,23.70
2023-05-21T15:45:38.473Z,23.60
2023-05-21T15:48:06.614Z,23.50
2023-05-21T15:50:35.394Z,23.50
2023-05-21T15:53:03.990Z,23.50
2023-05-21T15:55:34.068Z,23.50
2023-05-21T15:58:02.510Z,23.50
2023-05-21T16:00:29.401Z,23.50
2023-05-21T16:02:56.376Z,23.40
2023-05-21T16:05:23.113Z,23.40
2023-05-21T16:07:50.473Z,23.40
2023-05-21T16:10:17.305Z,23.40
2023-05-21T16:12:44.658Z,23.50
2023-05-21T16:15:11.466Z,23.50
2023-05-21T16:17:38.809Z,23.60
2023-05-21T16:20:06.686Z,23.70
2023-05-21T16:22:33.988Z,23.80
2023-05-21T16:25:00.643Z,23.90
2023-05-21T16:27:27.935Z,23.90
2023-05-21T16:29:54.613Z,24.00
2023-05-21T16:32:22.096Z,24.00
2023-05-21T16:34:49.001Z,23.90
2023-05-21T16:37:16.328Z,23.80
2023-05-21T16:39:42.967Z,23.80
2023-05-21T16:42:10.276Z,23.80
2023-05-21T16:44:37.782Z,23.80
2023-05-21T16:47:05.507Z,23.80
2023-05-21T16:49:32.171Z,23.70
2023-05-21T16:51:59.457Z,23.60
2023-05-21T16:54:27.093Z,23.60
2023-05-21T16:56:55.205Z,23.60
2023-05-21T16:59:21.881Z,23.50
2023-05-21T17:01:49.206Z,23.50
2023-05-21T17:04:15.955Z,23.40
2023-05-21T17:06:43.223Z,23.40
2023-05-21T17:09:09.870Z,23.30
2023-05-21T17:11:37.171Z,23.30
2023-05-21T17:14:03.856Z,23.20
2023-05-21T17:16:31.332Z,23.20
2023-05-21T17:18:58.053Z,23.20
2023-05-21T17:21:26.653Z,23.20
2023-05-21T17:23:53.297Z,23.10
2023-05-21T17:26:21.937Z,23.00
2023-05-21T17:28:48.568Z,23.00
2023-05-21T17:31:16.544Z,23.00
2023-05-21T17:33:43.441Z,22.90
2023-05-21T17:36:10.898Z,22.90
2023-05-21T17:38:37.523Z,22.90
2023-05-21T17:41:05.295Z,22.90
2023-05-21T17:43:32.073Z,23.00
2023-05-21T17:45:59.497Z,22.90
2023-05-21T17:48:26.360Z,23.00
2023-05-21T17:50:53.722Z,23.00
2023-05-21T17:53:20.496Z,23.00
2023-05-21T17:55:47.782Z,23.00
2023-05-21T17:58:14.456Z,23.00
2023-05-21T18:00:41.806Z,23.00
2023-05-21T18:03:08.556Z,23.00
2023-05-21T18:05:36.695Z,23.00
2023-05-21T18:08:04.011Z,23.00
2023-05-21T18:10:31.308Z,23.00
2023-05-21T18:12:57.971Z,23.00
2023-05-21T18:15:25.463Z,23.00
2023-05-21T18:17:52.173Z,23.00
2023-05-21T18:20:19.493Z,22.90
2023-05-21T18:22:46.187Z,22.80
2023-05-21T18:25:13.543Z,22.80
2023-05-21T18:27:40.270Z,22.70
2023-05-21T18:30:08.425Z,22.70
2023-05-21T18:32:38.237Z,22.60
2023-05-21T18:35:10.700Z,22.50
2023-05-21T18:37:38.677Z,22.40
2023-05-21T18:40:07.589Z,22.40
2023-05-21T18:42:34.303Z,22.30
2023-05-21T18:45:07.541Z,22.30
2023-05-21T18:47:34.657Z,22.30
2023-05-21T18:50:01.906Z,22.30
2023-05-21T18:52:28.610Z,22.20
2023-05-21T18:54:56.150Z,22.20
2023-05-21T18:57:23.893Z,22.10
2023-05-21T18:59:51.187Z,22.10
2023-05-21T19:02:19.500Z,22.10
2023-05-21T19:04:46.879Z,22.00
2023-05-21T19:07:15.811Z,22.00
2023-05-21T19:09:42.842Z,21.90
2023-05-21T19:12:09.626Z,21.80
2023-05-21T19:14:36.664Z,21.80
2023-05-21T19:17:03.380Z,21.80
2023-05-21T19:19:30.941Z,21.70
2023-05-21T19:21:58.104Z,21.70
2023-05-21T19:24:25.533Z,21.70
2023-05-21T19:26:52.169Z,21.60
2023-05-21T19:29:19.126Z,21.60
2023-05-21T19:31:45.962Z,21.50
2023-05-21T19:34:13.057Z,21.50
2023-05-21T19:36:52.367Z,21.40
2023-05-21T19:39:21.372Z,21.40
2023-05-21T19:41:48.190Z,21.30
2023-05-21T19:44:14.996Z,21.30
2023-05-21T19:46:41.935Z,21.20
2023-05-21T19:49:10.883Z,21.20
2023-05-21T19:51:38.257Z,21.10
2023-05-21T19:54:04.941Z,21.00
2023-05-21T19:56:31.590Z,21.00
2023-05-21T19:58:58.248Z,21.00
2023-05-21T20:01:25.525Z,21.00
2023-05-21T20:03:52.300Z,20.90
2023-05-21T20:06:20.943Z,20.90
2023-05-21T20:08:47.851Z,20.80
2023-05-21T20:11:15.206Z,20.80
2023-05-21T20:13:42.193Z,20.80
2023-05-21T20:16:10.752Z,20.70
2023-05-21T20:18:37.469Z,20.70
2023-05-21T20:21:06.037Z,20.70
2023-05-21T20:23:32.682Z,20.60
2023-05-21T20:25:59.653Z,20.50
2023-05-21T20:28:26.299Z,20.40
2023-05-21T20:30:59.086Z,20.30
2023-05-21T20:33:27.733Z,20.20
2023-05-21T20:35:55.046Z,20.10
2023-05-21T20:38:21.943Z,20.00
2023-05-21T20:40:48.925Z,19.90
2023-05-21T20:43:15.645Z,19.80
2023-05-21T20:45:43.507Z,19.80
2023-05-21T20:48:11.800Z,19.70
2023-05-21T20:50:41.098Z,19.70
2023-05-21T20:53:08.475Z,19.60
2023-05-21T20:55:35.821Z,19.50
2023-05-21T20:58:03.624Z,19.40
2023-05-21T21:00:33.666Z,19.30
2023-05-21T21:03:03.589Z,19.30
2023-05-21T21:05:31.161Z,19.30
2023-05-21T21:08:02.432Z,19.20
2023-05-21T21:10:29.533Z,19.10
2023-05-21T21:12:56.182Z,19.10
2023-05-21T21:15:23.477Z,19.10
2023-05-21T21:17:50.152Z,19.10
2023-05-21T21:20:18.815Z,19.10
2023-05-21T21:22:45.956Z,19.20
2023-05-21T21:25:16.139Z,19.20
2023-05-21T21:27:43.903Z,19.20
2023-05-21T21:30:10.950Z,19.30
2023-05-21T21:32:38.338Z,19.30
2023-05-21T21:35:05.847Z,19.20
2023-05-21T21:37:33.163Z,19.20
2023-05-21T21:39:59.824Z,19.20
2023-05-21T21:42:27.135Z,19.20
2023-05-21T21:44:53.780Z,19.10
2023-05-21T21:47:21.069Z,19.10
2023-05-21T21:49:47.994Z,19.10
2023-05-21T21:52:16.799Z,19.10
2023-05-21T21:54:43.484Z,19.00
2023-05-21T21:57:10.752Z,19.00
2023-05-21T21:59:38.315Z,19.00
2023-05-21T22:02:06.355Z,18.90
2023-05-21T22:04:33.095Z,18.90
2023-05-21T22:07:01.836Z,18.90
2023-05-21T22:09:28.648Z,18.90
2023-05-21T22:11:56.331Z,18.80
2023-05-21T22:14:23.762Z,18.70
2023-05-21T22:16:52.883Z,18.70
2023-05-21T22:19:22.282Z,18.70
2023-05-21T22:21:49.797Z,18.60
2023-05-21T22:24:31.030Z,18.60
2023-05-21T22:26:59.651Z,18.60
2023-05-21T22:29:26.303Z,18.50
2023-05-21T22:31:53.269Z,18.50
2023-05-21T22:34:20.462Z,18.50
2023-05-21T22:36:47.245Z,18.40
2023-05-21T22:39:14.336Z,18.40
2023-05-21T22:41:41.148Z,18.40
2023-05-21T22:44:08.413Z,18.30
2023-05-21T22:46:38.344Z,18.40
2023-05-21T22:49:06.485Z,18.40
2023-05-21T22:51:34.302Z,18.30
2023-05-21T22:54:01.953Z,18.30
2023-05-21T22:56:29.084Z,18.30
2023-05-21T22:58:56.835Z,18.30
2023-05-21T23:01:23.890Z,18.30
2023-05-21T23:03:51.717Z,18.30
2023-05-21T23:06:18.603Z,18.20
2023-05-21T23:08:46.095Z,18.20
2023-05-21T23:11:12.795Z,18.20
2023-05-21T23:13:40.094Z,18.20
2023-05-21T23:16:07.287Z,18.20
2023-05-21T23:18:35.570Z,18.20
2023-05-21T23:21:02.394Z,18.20
2023-05-21T23:23:29.917Z,18.10
2023-05-21T23:25:58.733Z,18.10
2023-05-21T23:28:26.693Z,18.10
2023-05-21T23:30:53.402Z,18.10
2023-05-21T23:33:20.821Z,18.00
2023-05-21T23:35:47.529Z,18.00
2023-05-21T23:38:14.839Z,17.90
2023-05-21T23:40:41.825Z,18.00
2023-05-21T23:43:09.135Z,17.90
2023-05-21T23:45:35.823Z,17.90
2023-05-21T23:48:03.477Z,17.90
2023-05-21T23:50:30.182Z,17.80
2023-05-21T23:52:57.481Z,17.80
2023-05-21T23:55:24.158Z,17.80
2023-05-21T23:57:51.666Z,17.70
